Long Neck, Delaware
Current Conditions -  °F | °C
As of 2:54 PM on Saturday 25 Oct 2014 (Local Time) from KGED Reporting Station
Clear Clear  
Wind Chill: 69°   Ceiling: Unl
Heat Index: 69°   Visibility: 10mi
Dew Point: 43°   Wind: 9mph
Humidity: 39%   Direction: 260°W
Pressure: 29.81"   Gusts: NA
Location:  38.5762°N, 75.3072°W
Report Text: KGED 251854Z AUTO 26008KT 10SM CLR 21/06 A2981 RMK AO2 SLP092 T02060061 $
Loading
Personal Weather Stations






























Interactive Weather Map
Tropical Storm Tracking
New forecast layout! Learn more

10-Day Weather Forecast

Advertisements
Track Severe Weather on mobile